sensor_id;sensor_type;location;lat;lon;timestamp;P1;durP1;ratioP1;P2;durP2;ratioP2
53875;SDS011;39789;53.216;5.624;2024-01-30T00:01:27;33.88;;;30.38;;
53875;SDS011;39789;53.216;5.624;2024-01-30T00:03:53;35.63;;;31.63;;
53875;SDS011;39789;53.216;5.624;2024-01-30T00:06:19;35.60;;;31.35;;
53875;SDS011;39789;53.216;5.624;2024-01-30T00:08:46;36.88;;;32.92;;
53875;SDS011;39789;53.216;5.624;2024-01-30T00:11:14;34.60;;;30.92;;
53875;SDS011;39789;53.216;5.624;2024-01-30T00:13:40;38.13;;;33.97;;
53875;SDS011;39789;53.216;5.624;2024-01-30T00:16:06;38.33;;;33.15;;
53875;SDS011;39789;53.216;5.624;2024-01-30T00:18:31;39.60;;;34.92;;
53875;SDS011;39789;53.216;5.624;2024-01-30T00:20:57;37.10;;;33.05;;
53875;SDS011;39789;53.216;5.624;2024-01-30T00:23:23;40.47;;;33.55;;
53875;SDS011;39789;53.216;5.624;2024-01-30T00:25:49;39.08;;;34.70;;
53875;SDS011;39789;53.216;5.624;2024-01-30T00:28:15;34.75;;;31.02;;
53875;SDS011;39789;53.216;5.624;2024-01-30T00:30:41;38.90;;;34.65;;
53875;SDS011;39789;53.216;5.624;2024-01-30T00:33:06;39.15;;;33.65;;
53875;SDS011;39789;53.216;5.624;2024-01-30T00:35:33;37.45;;;32.75;;
53875;SDS011;39789;53.216;5.624;2024-01-30T00:37:58;37.05;;;33.08;;
53875;SDS011;39789;53.216;5.624;2024-01-30T00:40:24;37.20;;;31.95;;
53875;SDS011;39789;53.216;5.624;2024-01-30T00:42:50;37.00;;;32.13;;
53875;SDS011;39789;53.216;5.624;2024-01-30T00:45:16;37.20;;;32.70;;
53875;SDS011;39789;53.216;5.624;2024-01-30T00:47:42;41.55;;;35.90;;
53875;SDS011;39789;53.216;5.624;2024-01-30T00:50:08;39.67;;;32.60;;
53875;SDS011;39789;53.216;5.624;2024-01-30T00:52:34;37.45;;;33.55;;
53875;SDS011;39789;53.216;5.624;2024-01-30T00:55:00;39.30;;;33.72;;
53875;SDS011;39789;53.216;5.624;2024-01-30T00:57:26;35.85;;;32.03;;
53875;SDS011;39789;53.216;5.624;2024-01-30T00:59:52;37.35;;;33.45;;
53875;SDS011;39789;53.216;5.624;2024-01-30T01:02:17;38.97;;;33.50;;
53875;SDS011;39789;53.216;5.624;2024-01-30T01:04:44;42.75;;;35.25;;
53875;SDS011;39789;53.216;5.624;2024-01-30T01:07:10;45.13;;;38.47;;
53875;SDS011;39789;53.216;5.624;2024-01-30T01:09:36;40.63;;;35.20;;
53875;SDS011;39789;53.216;5.624;2024-01-30T01:12:02;40.28;;;34.95;;
53875;SDS011;39789;53.216;5.624;2024-01-30T01:14:28;41.03;;;36.45;;
53875;SDS011;39789;53.216;5.624;2024-01-30T01:16:54;43.00;;;36.15;;
53875;SDS011;39789;53.216;5.624;2024-01-30T01:19:19;43.78;;;38.10;;
53875;SDS011;39789;53.216;5.624;2024-01-30T01:21:45;45.15;;;40.17;;
53875;SDS011;39789;53.216;5.624;2024-01-30T01:24:11;42.50;;;37.95;;
53875;SDS011;39789;53.216;5.624;2024-01-30T01:26:36;41.42;;;36.08;;
53875;SDS011;39789;53.216;5.624;2024-01-30T01:29:02;44.13;;;38.35;;
53875;SDS011;39789;53.216;5.624;2024-01-30T01:31:34;40.25;;;36.05;;
53875;SDS011;39789;53.216;5.624;2024-01-30T01:34:12;41.40;;;36.85;;
53875;SDS011;39789;53.216;5.624;2024-01-30T01:36:38;44.40;;;36.33;;
53875;SDS011;39789;53.216;5.624;2024-01-30T01:39:04;42.60;;;36.28;;
53875;SDS011;39789;53.216;5.624;2024-01-30T01:41:30;43.75;;;36.63;;
53875;SDS011;39789;53.216;5.624;2024-01-30T01:43:59;39.20;;;35.13;;
53875;SDS011;39789;53.216;5.624;2024-01-30T01:46:30;41.72;;;37.28;;
53875;SDS011;39789;53.216;5.624;2024-01-30T01:48:57;41.85;;;36.75;;
53875;SDS011;39789;53.216;5.624;2024-01-30T01:51:25;41.03;;;36.55;;
53875;SDS011;39789;53.216;5.624;2024-01-30T01:53:56;41.10;;;34.72;;
53875;SDS011;39789;53.216;5.624;2024-01-30T01:56:23;40.88;;;36.47;;
53875;SDS011;39789;53.216;5.624;2024-01-30T01:58:49;41.15;;;36.17;;
53875;SDS011;39789;53.216;5.624;2024-01-30T02:01:16;41.00;;;35.55;;
53875;SDS011;39789;53.216;5.624;2024-01-30T02:03:45;42.65;;;36.50;;
53875;SDS011;39789;53.216;5.624;2024-01-30T02:06:11;41.53;;;36.53;;
53875;SDS011;39789;53.216;5.624;2024-01-30T02:08:41;47.88;;;38.63;;
53875;SDS011;39789;53.216;5.624;2024-01-30T02:11:07;42.40;;;36.50;;
53875;SDS011;39789;53.216;5.624;2024-01-30T02:13:34;40.50;;;36.10;;
53875;SDS011;39789;53.216;5.624;2024-01-30T02:15:59;43.65;;;37.33;;
53875;SDS011;39789;53.216;5.624;2024-01-30T02:18:26;45.22;;;37.60;;
53875;SDS011;39789;53.216;5.624;2024-01-30T02:20:52;45.17;;;36.40;;
53875;SDS011;39789;53.216;5.624;2024-01-30T02:23:19;41.78;;;35.78;;
53875;SDS011;39789;53.216;5.624;2024-01-30T02:25:45;41.05;;;36.58;;
53875;SDS011;39789;53.216;5.624;2024-01-30T02:28:14;43.22;;;36.75;;
53875;SDS011;39789;53.216;5.624;2024-01-30T02:30:42;40.70;;;36.33;;
53875;SDS011;39789;53.216;5.624;2024-01-30T02:33:08;39.63;;;35.33;;
53875;SDS011;39789;53.216;5.624;2024-01-30T02:35:33;41.78;;;37.30;;
53875;SDS011;39789;53.216;5.624;2024-01-30T02:38:00;44.33;;;37.40;;
53875;SDS011;39789;53.216;5.624;2024-01-30T02:40:25;42.85;;;36.88;;
53875;SDS011;39789;53.216;5.624;2024-01-30T02:42:51;39.58;;;34.63;;
53875;SDS011;39789;53.216;5.624;2024-01-30T02:45:17;36.22;;;32.33;;
53875;SDS011;39789;53.216;5.624;2024-01-30T02:47:43;40.33;;;35.65;;
53875;SDS011;39789;53.216;5.624;2024-01-30T02:50:09;43.17;;;34.75;;
53875;SDS011;39789;53.216;5.624;2024-01-30T02:52:35;39.58;;;34.42;;
53875;SDS011;39789;53.216;5.624;2024-01-30T02:55:01;39.83;;;34.85;;
53875;SDS011;39789;53.216;5.624;2024-01-30T02:57:27;43.67;;;35.47;;
53875;SDS011;39789;53.216;5.624;2024-01-30T02:59:53;40.08;;;35.83;;
53875;SDS011;39789;53.216;5.624;2024-01-30T03:02:19;41.42;;;36.35;;
53875;SDS011;39789;53.216;5.624;2024-01-30T03:04:45;40.78;;;34.08;;
53875;SDS011;39789;53.216;5.624;2024-01-30T03:07:10;41.97;;;34.90;;
53875;SDS011;39789;53.216;5.624;2024-01-30T03:09:36;38.08;;;33.45;;
53875;SDS011;39789;53.216;5.624;2024-01-30T03:12:02;42.70;;;35.65;;
53875;SDS011;39789;53.216;5.624;2024-01-30T03:14:30;38.38;;;34.15;;
53875;SDS011;39789;53.216;5.624;2024-01-30T03:16:56;39.67;;;34.80;;
53875;SDS011;39789;53.216;5.624;2024-01-30T03:19:22;43.97;;;37.50;;
53875;SDS011;39789;53.216;5.624;2024-01-30T03:21:50;42.35;;;35.83;;
53875;SDS011;39789;53.216;5.624;2024-01-30T03:24:16;46.33;;;36.75;;
53875;SDS011;39789;53.216;5.624;2024-01-30T03:26:42;45.40;;;37.42;;
53875;SDS011;39789;53.216;5.624;2024-01-30T03:29:08;40.00;;;35.03;;
53875;SDS011;39789;53.216;5.624;2024-01-30T03:31:34;42.53;;;34.53;;
53875;SDS011;39789;53.216;5.624;2024-01-30T03:34:00;39.35;;;35.13;;
53875;SDS011;39789;53.216;5.624;2024-01-30T03:36:26;40.42;;;35.13;;
53875;SDS011;39789;53.216;5.624;2024-01-30T03:38:51;43.45;;;36.75;;
53875;SDS011;39789;53.216;5.624;2024-01-30T03:41:17;44.42;;;36.78;;
53875;SDS011;39789;53.216;5.624;2024-01-30T03:43:43;41.47;;;34.90;;
53875;SDS011;39789;53.216;5.624;2024-01-30T03:46:08;42.28;;;36.03;;
53875;SDS011;39789;53.216;5.624;2024-01-30T03:48:34;39.47;;;35.17;;
53875;SDS011;39789;53.216;5.624;2024-01-30T03:51:00;41.75;;;35.80;;
53875;SDS011;39789;53.216;5.624;2024-01-30T03:53:25;39.65;;;35.25;;
53875;SDS011;39789;53.216;5.624;2024-01-30T03:55:51;42.15;;;36.17;;
53875;SDS011;39789;53.216;5.624;2024-01-30T03:58:16;37.97;;;33.72;;
53875;SDS011;39789;53.216;5.624;2024-01-30T04:00:42;38.30;;;32.60;;
53875;SDS011;39789;53.216;5.624;2024-01-30T04:03:08;43.22;;;35.30;;
53875;SDS011;39789;53.216;5.624;2024-01-30T04:05:33;43.08;;;33.83;;
53875;SDS011;39789;53.216;5.624;2024-01-30T04:07:59;36.45;;;32.53;;
53875;SDS011;39789;53.216;5.624;2024-01-30T04:10:25;39.53;;;33.35;;
53875;SDS011;39789;53.216;5.624;2024-01-30T04:12:51;39.17;;;33.58;;
53875;SDS011;39789;53.216;5.624;2024-01-30T04:15:17;37.95;;;32.90;;
53875;SDS011;39789;53.216;5.624;2024-01-30T04:17:43;36.70;;;32.85;;
53875;SDS011;39789;53.216;5.624;2024-01-30T04:20:15;33.63;;;30.13;;
53875;SDS011;39789;53.216;5.624;2024-01-30T04:22:44;36.30;;;31.52;;
53875;SDS011;39789;53.216;5.624;2024-01-30T04:25:11;39.25;;;32.17;;
53875;SDS011;39789;53.216;5.624;2024-01-30T04:27:38;35.65;;;30.48;;
53875;SDS011;39789;53.216;5.624;2024-01-30T04:30:04;35.85;;;31.95;;
53875;SDS011;39789;53.216;5.624;2024-01-30T04:32:30;39.95;;;30.33;;
53875;SDS011;39789;53.216;5.624;2024-01-30T04:34:55;34.13;;;29.90;;
53875;SDS011;39789;53.216;5.624;2024-01-30T04:37:21;33.33;;;29.80;;
53875;SDS011;39789;53.216;5.624;2024-01-30T04:39:46;34.83;;;29.00;;
53875;SDS011;39789;53.216;5.624;2024-01-30T04:42:12;33.75;;;29.65;;
53875;SDS011;39789;53.216;5.624;2024-01-30T04:44:38;31.13;;;27.80;;
53875;SDS011;39789;53.216;5.624;2024-01-30T04:47:03;31.15;;;27.77;;
53875;SDS011;39789;53.216;5.624;2024-01-30T04:49:31;31.17;;;27.88;;
53875;SDS011;39789;53.216;5.624;2024-01-30T04:51:57;31.38;;;27.92;;
53875;SDS011;39789;53.216;5.624;2024-01-30T04:54:23;39.75;;;28.23;;
53875;SDS011;39789;53.216;5.624;2024-01-30T04:56:49;30.83;;;27.02;;
53875;SDS011;39789;53.216;5.624;2024-01-30T04:59:15;31.15;;;25.77;;
53875;SDS011;39789;53.216;5.624;2024-01-30T05:01:40;30.52;;;27.17;;
53875;SDS011;39789;53.216;5.624;2024-01-30T05:04:09;29.88;;;26.58;;
53875;SDS011;39789;53.216;5.624;2024-01-30T05:06:36;28.02;;;24.95;;
53875;SDS011;39789;53.216;5.624;2024-01-30T05:09:01;29.98;;;26.85;;
53875;SDS011;39789;53.216;5.624;2024-01-30T05:11:29;30.65;;;27.35;;
53875;SDS011;39789;53.216;5.624;2024-01-30T05:13:55;29.55;;;26.35;;
53875;SDS011;39789;53.216;5.624;2024-01-30T05:16:21;28.63;;;25.63;;
53875;SDS011;39789;53.216;5.624;2024-01-30T05:18:46;29.88;;;24.42;;
53875;SDS011;39789;53.216;5.624;2024-01-30T05:21:12;28.00;;;24.90;;
53875;SDS011;39789;53.216;5.624;2024-01-30T05:23:38;28.27;;;24.42;;
53875;SDS011;39789;53.216;5.624;2024-01-30T05:26:03;27.88;;;24.88;;
53875;SDS011;39789;53.216;5.624;2024-01-30T05:28:29;26.88;;;23.85;;
53875;SDS011;39789;53.216;5.624;2024-01-30T05:30:55;27.10;;;24.23;;
53875;SDS011;39789;53.216;5.624;2024-01-30T05:33:21;27.73;;;23.50;;
53875;SDS011;39789;53.216;5.624;2024-01-30T05:35:47;27.05;;;24.10;;
53875;SDS011;39789;53.216;5.624;2024-01-30T05:38:13;27.33;;;22.65;;
53875;SDS011;39789;53.216;5.624;2024-01-30T05:40:40;28.17;;;23.80;;
53875;SDS011;39789;53.216;5.624;2024-01-30T05:43:06;24.48;;;21.98;;
53875;SDS011;39789;53.216;5.624;2024-01-30T05:45:33;24.25;;;21.75;;
53875;SDS011;39789;53.216;5.624;2024-01-30T05:48:00;25.98;;;22.88;;
53875;SDS011;39789;53.216;5.624;2024-01-30T05:50:26;25.83;;;21.88;;
53875;SDS011;39789;53.216;5.624;2024-01-30T05:52:52;24.92;;;22.15;;
53875;SDS011;39789;53.216;5.624;2024-01-30T05:55:18;24.17;;;21.35;;
53875;SDS011;39789;53.216;5.624;2024-01-30T05:57:43;23.70;;;20.85;;
53875;SDS011;39789;53.216;5.624;2024-01-30T06:00:09;23.80;;;21.20;;
53875;SDS011;39789;53.216;5.624;2024-01-30T06:02:35;24.10;;;21.45;;
53875;SDS011;39789;53.216;5.624;2024-01-30T06:05:01;25.05;;;21.73;;
53875;SDS011;39789;53.216;5.624;2024-01-30T06:07:27;23.77;;;21.13;;
53875;SDS011;39789;53.216;5.624;2024-01-30T06:09:53;23.65;;;20.77;;
53875;SDS011;39789;53.216;5.624;2024-01-30T06:12:19;25.15;;;21.63;;
53875;SDS011;39789;53.216;5.624;2024-01-30T06:14:44;23.25;;;20.75;;
53875;SDS011;39789;53.216;5.624;2024-01-30T06:17:10;26.48;;;20.50;;
53875;SDS011;39789;53.216;5.624;2024-01-30T06:19:37;24.45;;;21.25;;
53875;SDS011;39789;53.216;5.624;2024-01-30T06:22:04;22.58;;;20.17;;
53875;SDS011;39789;53.216;5.624;2024-01-30T06:24:30;23.08;;;20.48;;
53875;SDS011;39789;53.216;5.624;2024-01-30T06:26:55;24.58;;;20.92;;
53875;SDS011;39789;53.216;5.624;2024-01-30T06:29:21;25.88;;;20.92;;
53875;SDS011;39789;53.216;5.624;2024-01-30T06:31:49;22.90;;;20.50;;
53875;SDS011;39789;53.216;5.624;2024-01-30T06:34:15;23.35;;;20.35;;
53875;SDS011;39789;53.216;5.624;2024-01-30T06:36:41;23.08;;;19.80;;
53875;SDS011;39789;53.216;5.624;2024-01-30T06:39:07;23.30;;;20.30;;
53875;SDS011;39789;53.216;5.624;2024-01-30T06:41:33;24.38;;;19.98;;
53875;SDS011;39789;53.216;5.624;2024-01-30T06:43:58;22.42;;;20.02;;
53875;SDS011;39789;53.216;5.624;2024-01-30T06:46:24;22.73;;;20.17;;
53875;SDS011;39789;53.216;5.624;2024-01-30T06:48:50;22.17;;;19.38;;
53875;SDS011;39789;53.216;5.624;2024-01-30T06:51:18;22.80;;;20.40;;
53875;SDS011;39789;53.216;5.624;2024-01-30T06:53:44;21.23;;;18.73;;
53875;SDS011;39789;53.216;5.624;2024-01-30T06:56:10;28.80;;;20.50;;
53875;SDS011;39789;53.216;5.624;2024-01-30T06:58:35;21.80;;;19.55;;
53875;SDS011;39789;53.216;5.624;2024-01-30T07:01:01;22.40;;;19.08;;
53875;SDS011;39789;53.216;5.624;2024-01-30T07:03:27;24.90;;;19.30;;
53875;SDS011;39789;53.216;5.624;2024-01-30T07:05:52;22.17;;;19.48;;
53875;SDS011;39789;53.216;5.624;2024-01-30T07:08:18;23.90;;;20.80;;
53875;SDS011;39789;53.216;5.624;2024-01-30T07:10:44;21.55;;;19.25;;
53875;SDS011;39789;53.216;5.624;2024-01-30T07:13:10;23.60;;;20.23;;
53875;SDS011;39789;53.216;5.624;2024-01-30T07:15:36;22.63;;;19.52;;
53875;SDS011;39789;53.216;5.624;2024-01-30T07:18:03;21.67;;;19.27;;
53875;SDS011;39789;53.216;5.624;2024-01-30T07:20:30;23.98;;;19.75;;
53875;SDS011;39789;53.216;5.624;2024-01-30T07:22:57;22.52;;;18.88;;
53875;SDS011;39789;53.216;5.624;2024-01-30T07:25:23;22.80;;;20.00;;
53875;SDS011;39789;53.216;5.624;2024-01-30T07:27:52;21.25;;;19.05;;
53875;SDS011;39789;53.216;5.624;2024-01-30T07:30:18;24.50;;;20.08;;
53875;SDS011;39789;53.216;5.624;2024-01-30T07:32:45;20.45;;;18.35;;
53875;SDS011;39789;53.216;5.624;2024-01-30T07:35:11;23.27;;;19.35;;
53875;SDS011;39789;53.216;5.624;2024-01-30T07:37:40;21.95;;;19.60;;
53875;SDS011;39789;53.216;5.624;2024-01-30T07:40:05;20.48;;;17.77;;
53875;SDS011;39789;53.216;5.624;2024-01-30T07:42:32;20.40;;;18.25;;
53875;SDS011;39789;53.216;5.624;2024-01-30T07:44:58;23.73;;;19.42;;
53875;SDS011;39789;53.216;5.624;2024-01-30T07:47:25;23.40;;;20.55;;
53875;SDS011;39789;53.216;5.624;2024-01-30T07:49:50;22.15;;;18.33;;
53875;SDS011;39789;53.216;5.624;2024-01-30T07:52:16;21.17;;;18.85;;
53875;SDS011;39789;53.216;5.624;2024-01-30T07:54:42;22.98;;;19.67;;
53875;SDS011;39789;53.216;5.624;2024-01-30T07:57:07;21.80;;;19.60;;
53875;SDS011;39789;53.216;5.624;2024-01-30T07:59:33;22.60;;;20.20;;
53875;SDS011;39789;53.216;5.624;2024-01-30T08:01:59;21.95;;;19.08;;
53875;SDS011;39789;53.216;5.624;2024-01-30T08:04:25;21.15;;;19.05;;
53875;SDS011;39789;53.216;5.624;2024-01-30T08:06:51;22.48;;;19.65;;
53875;SDS011;39789;53.216;5.624;2024-01-30T08:09:17;21.60;;;19.13;;
53875;SDS011;39789;53.216;5.624;2024-01-30T08:11:43;21.65;;;18.83;;
53875;SDS011;39789;53.216;5.624;2024-01-30T08:14:08;21.05;;;18.95;;
53875;SDS011;39789;53.216;5.624;2024-01-30T08:16:34;21.58;;;19.33;;
53875;SDS011;39789;53.216;5.624;2024-01-30T08:19:00;24.42;;;20.05;;
53875;SDS011;39789;53.216;5.624;2024-01-30T08:21:26;21.70;;;18.10;;
53875;SDS011;39789;53.216;5.624;2024-01-30T08:23:52;21.80;;;18.60;;
53875;SDS011;39789;53.216;5.624;2024-01-30T08:26:17;23.02;;;18.52;;
53875;SDS011;39789;53.216;5.624;2024-01-30T08:28:43;20.80;;;18.58;;
53875;SDS011;39789;53.216;5.624;2024-01-30T08:31:10;21.02;;;17.80;;
53875;SDS011;39789;53.216;5.624;2024-01-30T08:33:37;24.58;;;17.83;;
53875;SDS011;39789;53.216;5.624;2024-01-30T08:36:02;22.30;;;17.38;;
53875;SDS011;39789;53.216;5.624;2024-01-30T08:38:28;21.38;;;17.73;;
53875;SDS011;39789;53.216;5.624;2024-01-30T08:40:54;23.75;;;18.60;;
53875;SDS011;39789;53.216;5.624;2024-01-30T08:43:20;21.00;;;18.00;;
53875;SDS011;39789;53.216;5.624;2024-01-30T08:45:46;19.65;;;16.65;;
53875;SDS011;39789;53.216;5.624;2024-01-30T08:48:12;23.27;;;16.75;;
53875;SDS011;39789;53.216;5.624;2024-01-30T08:50:37;21.80;;;17.48;;
53875;SDS011;39789;53.216;5.624;2024-01-30T08:53:03;27.27;;;17.52;;
53875;SDS011;39789;53.216;5.624;2024-01-30T08:55:29;23.63;;;17.27;;
53875;SDS011;39789;53.216;5.624;2024-01-30T08:57:54;21.70;;;17.25;;
53875;SDS011;39789;53.216;5.624;2024-01-30T09:00:20;25.35;;;17.63;;
53875;SDS011;39789;53.216;5.624;2024-01-30T09:02:46;21.50;;;17.05;;
53875;SDS011;39789;53.216;5.624;2024-01-30T09:05:11;22.35;;;16.38;;
53875;SDS011;39789;53.216;5.624;2024-01-30T09:07:37;20.52;;;16.55;;
53875;SDS011;39789;53.216;5.624;2024-01-30T09:10:03;21.35;;;16.58;;
53875;SDS011;39789;53.216;5.624;2024-01-30T09:12:29;21.88;;;17.35;;
53875;SDS011;39789;53.216;5.624;2024-01-30T09:14:55;23.08;;;16.35;;
53875;SDS011;39789;53.216;5.624;2024-01-30T09:17:20;19.85;;;16.65;;
53875;SDS011;39789;53.216;5.624;2024-01-30T09:19:46;22.85;;;17.00;;
53875;SDS011;39789;53.216;5.624;2024-01-30T09:22:13;18.95;;;15.85;;
53875;SDS011;39789;53.216;5.624;2024-01-30T09:24:39;22.27;;;16.60;;
53875;SDS011;39789;53.216;5.624;2024-01-30T09:27:05;19.85;;;16.58;;
53875;SDS011;39789;53.216;5.624;2024-01-30T09:29:31;20.63;;;16.90;;
53875;SDS011;39789;53.216;5.624;2024-01-30T09:31:59;19.92;;;17.48;;
53875;SDS011;39789;53.216;5.624;2024-01-30T09:34:25;21.00;;;15.95;;
53875;SDS011;39789;53.216;5.624;2024-01-30T09:36:50;23.80;;;17.05;;
53875;SDS011;39789;53.216;5.624;2024-01-30T09:39:16;20.90;;;16.50;;
53875;SDS011;39789;53.216;5.624;2024-01-30T09:41:48;19.23;;;16.17;;
53875;SDS011;39789;53.216;5.624;2024-01-30T09:44:17;25.20;;;17.38;;
53875;SDS011;39789;53.216;5.624;2024-01-30T09:46:47;23.02;;;17.15;;
53875;SDS011;39789;53.216;5.624;2024-01-30T09:49:15;21.40;;;17.13;;
53875;SDS011;39789;53.216;5.624;2024-01-30T09:51:43;23.20;;;16.80;;
53875;SDS011;39789;53.216;5.624;2024-01-30T09:54:10;24.10;;;16.45;;
53875;SDS011;39789;53.216;5.624;2024-01-30T09:56:38;24.92;;;16.33;;
53875;SDS011;39789;53.216;5.624;2024-01-30T09:59:04;21.90;;;15.60;;
53875;SDS011;39789;53.216;5.624;2024-01-30T10:01:30;25.25;;;16.45;;
53875;SDS011;39789;53.216;5.624;2024-01-30T10:03:56;23.45;;;15.30;;
53875;SDS011;39789;53.216;5.624;2024-01-30T10:06:22;22.33;;;14.88;;
53875;SDS011;39789;53.216;5.624;2024-01-30T10:08:50;23.58;;;13.68;;
53875;SDS011;39789;53.216;5.624;2024-01-30T10:11:15;25.13;;;13.48;;
53875;SDS011;39789;53.216;5.624;2024-01-30T10:13:41;21.67;;;13.15;;
53875;SDS011;39789;53.216;5.624;2024-01-30T10:16:07;24.13;;;12.68;;
53875;SDS011;39789;53.216;5.624;2024-01-30T10:18:32;24.08;;;11.98;;
53875;SDS011;39789;53.216;5.624;2024-01-30T10:20:58;20.83;;;10.82;;
53875;SDS011;39789;53.216;5.624;2024-01-30T10:23:24;27.65;;;9.88;;
53875;SDS011;39789;53.216;5.624;2024-01-30T10:25:53;19.20;;;9.32;;
53875;SDS011;39789;53.216;5.624;2024-01-30T10:28:19;22.13;;;8.88;;
53875;SDS011;39789;53.216;5.624;2024-01-30T10:30:46;20.77;;;8.68;;
53875;SDS011;39789;53.216;5.624;2024-01-30T10:33:21;22.33;;;7.97;;
53875;SDS011;39789;53.216;5.624;2024-01-30T10:35:47;21.60;;;8.35;;
53875;SDS011;39789;53.216;5.624;2024-01-30T10:38:15;15.50;;;6.90;;
53875;SDS011;39789;53.216;5.624;2024-01-30T10:40:44;20.50;;;6.13;;
53875;SDS011;39789;53.216;5.624;2024-01-30T10:43:12;11.82;;;5.90;;
53875;SDS011;39789;53.216;5.624;2024-01-30T10:45:40;13.57;;;5.40;;
53875;SDS011;39789;53.216;5.624;2024-01-30T10:48:12;15.25;;;6.43;;
53875;SDS011;39789;53.216;5.624;2024-01-30T10:50:39;10.77;;;4.82;;
53875;SDS011;39789;53.216;5.624;2024-01-30T10:53:07;14.73;;;5.57;;
53875;SDS011;39789;53.216;5.624;2024-01-30T10:55:34;15.27;;;5.10;;
53875;SDS011;39789;53.216;5.624;2024-01-30T10:58:01;13.93;;;5.32;;
53875;SDS011;39789;53.216;5.624;2024-01-30T11:00:28;17.25;;;5.82;;
53875;SDS011;39789;53.216;5.624;2024-01-30T11:02:54;12.43;;;4.88;;
53875;SDS011;39789;53.216;5.624;2024-01-30T11:05:23;15.07;;;5.22;;
53875;SDS011;39789;53.216;5.624;2024-01-30T11:07:52;12.85;;;4.60;;
53875;SDS011;39789;53.216;5.624;2024-01-30T11:10:18;13.98;;;4.75;;
53875;SDS011;39789;53.216;5.624;2024-01-30T11:12:45;9.98;;;4.82;;
53875;SDS011;39789;53.216;5.624;2024-01-30T11:15:15;12.20;;;4.65;;
53875;SDS011;39789;53.216;5.624;2024-01-30T11:20:11;12.45;;;4.35;;
53875;SDS011;39789;53.216;5.624;2024-01-30T11:22:53;10.57;;;4.00;;
53875;SDS011;39789;53.216;5.624;2024-01-30T11:25:21;9.85;;;4.10;;
53875;SDS011;39789;53.216;5.624;2024-01-30T11:27:49;10.95;;;3.95;;
53875;SDS011;39789;53.216;5.624;2024-01-30T11:30:26;11.23;;;3.60;;
53875;SDS011;39789;53.216;5.624;2024-01-30T11:33:00;7.95;;;3.50;;
53875;SDS011;39789;53.216;5.624;2024-01-30T11:35:46;8.52;;;3.20;;
53875;SDS011;39789;53.216;5.624;2024-01-30T11:38:15;7.80;;;3.15;;
53875;SDS011;39789;53.216;5.624;2024-01-30T11:40:41;9.65;;;3.08;;
53875;SDS011;39789;53.216;5.624;2024-01-30T11:43:09;9.80;;;3.47;;
53875;SDS011;39789;53.216;5.624;2024-01-30T11:45:35;12.52;;;4.03;;
53875;SDS011;39789;53.216;5.624;2024-01-30T11:48:01;8.35;;;3.25;;
53875;SDS011;39789;53.216;5.624;2024-01-30T11:50:32;10.27;;;3.20;;
53875;SDS011;39789;53.216;5.624;2024-01-30T11:52:59;7.80;;;3.00;;
53875;SDS011;39789;53.216;5.624;2024-01-30T11:55:25;11.10;;;3.63;;
53875;SDS011;39789;53.216;5.624;2024-01-30T11:57:54;11.55;;;3.75;;
53875;SDS011;39789;53.216;5.624;2024-01-30T12:00:20;10.38;;;3.30;;
53875;SDS011;39789;53.216;5.624;2024-01-30T12:02:53;7.75;;;2.85;;
53875;SDS011;39789;53.216;5.624;2024-01-30T12:05:23;11.20;;;3.33;;
53875;SDS011;39789;53.216;5.624;2024-01-30T12:07:50;8.25;;;3.20;;
53875;SDS011;39789;53.216;5.624;2024-01-30T12:10:16;9.48;;;2.90;;
53875;SDS011;39789;53.216;5.624;2024-01-30T12:12:44;6.15;;;2.72;;
53875;SDS011;39789;53.216;5.624;2024-01-30T12:15:12;7.15;;;2.85;;
53875;SDS011;39789;53.216;5.624;2024-01-30T12:17:38;7.22;;;2.67;;
53875;SDS011;39789;53.216;5.624;2024-01-30T12:22:31;6.57;;;2.72;;
53875;SDS011;39789;53.216;5.624;2024-01-30T12:25:07;6.75;;;2.92;;
53875;SDS011;39789;53.216;5.624;2024-01-30T12:27:34;6.18;;;2.78;;
53875;SDS011;39789;53.216;5.624;2024-01-30T12:30:00;7.70;;;2.65;;
53875;SDS011;39789;53.216;5.624;2024-01-30T12:32:26;7.43;;;2.63;;
53875;SDS011;39789;53.216;5.624;2024-01-30T12:34:56;6.30;;;2.72;;
53875;SDS011;39789;53.216;5.624;2024-01-30T12:37:22;7.78;;;2.38;;
53875;SDS011;39789;53.216;5.624;2024-01-30T12:39:49;9.50;;;2.47;;
53875;SDS011;39789;53.216;5.624;2024-01-30T12:42:19;10.57;;;2.92;;
53875;SDS011;39789;53.216;5.624;2024-01-30T12:44:48;6.40;;;2.58;;
53875;SDS011;39789;53.216;5.624;2024-01-30T12:47:15;7.70;;;2.55;;
53875;SDS011;39789;53.216;5.624;2024-01-30T12:49:44;7.13;;;2.70;;
53875;SDS011;39789;53.216;5.624;2024-01-30T12:52:10;7.22;;;2.47;;
53875;SDS011;39789;53.216;5.624;2024-01-30T12:54:37;7.43;;;3.10;;
53875;SDS011;39789;53.216;5.624;2024-01-30T12:57:03;6.85;;;2.72;;
53875;SDS011;39789;53.216;5.624;2024-01-30T12:59:30;7.28;;;2.60;;
53875;SDS011;39789;53.216;5.624;2024-01-30T13:01:55;7.97;;;2.95;;
53875;SDS011;39789;53.216;5.624;2024-01-30T13:04:22;5.72;;;2.40;;
53875;SDS011;39789;53.216;5.624;2024-01-30T13:06:48;7.13;;;2.47;;
53875;SDS011;39789;53.216;5.624;2024-01-30T13:09:14;10.98;;;2.60;;
53875;SDS011;39789;53.216;5.624;2024-01-30T13:11:39;6.25;;;2.53;;
53875;SDS011;39789;53.216;5.624;2024-01-30T13:14:05;5.95;;;2.30;;
53875;SDS011;39789;53.216;5.624;2024-01-30T13:16:31;4.45;;;2.20;;
53875;SDS011;39789;53.216;5.624;2024-01-30T13:18:56;8.27;;;2.83;;
53875;SDS011;39789;53.216;5.624;2024-01-30T13:21:22;7.13;;;2.78;;
53875;SDS011;39789;53.216;5.624;2024-01-30T13:23:48;5.78;;;2.60;;
53875;SDS011;39789;53.216;5.624;2024-01-30T13:26:18;4.60;;;2.65;;
53875;SDS011;39789;53.216;5.624;2024-01-30T13:28:43;6.53;;;2.38;;
53875;SDS011;39789;53.216;5.624;2024-01-30T13:31:09;4.88;;;2.45;;
53875;SDS011;39789;53.216;5.624;2024-01-30T13:33:35;6.22;;;2.35;;
53875;SDS011;39789;53.216;5.624;2024-01-30T13:36:01;5.93;;;2.63;;
53875;SDS011;39789;53.216;5.624;2024-01-30T13:38:26;5.18;;;2.20;;
53875;SDS011;39789;53.216;5.624;2024-01-30T13:40:52;7.30;;;2.58;;
53875;SDS011;39789;53.216;5.624;2024-01-30T13:43:18;7.18;;;2.47;;
53875;SDS011;39789;53.216;5.624;2024-01-30T13:45:43;6.07;;;2.40;;
53875;SDS011;39789;53.216;5.624;2024-01-30T13:48:10;6.07;;;2.60;;
53875;SDS011;39789;53.216;5.624;2024-01-30T13:50:35;4.97;;;2.47;;
53875;SDS011;39789;53.216;5.624;2024-01-30T13:53:02;5.53;;;2.47;;
53875;SDS011;39789;53.216;5.624;2024-01-30T13:55:28;4.53;;;2.65;;
53875;SDS011;39789;53.216;5.624;2024-01-30T13:57:54;5.10;;;3.00;;
53875;SDS011;39789;53.216;5.624;2024-01-30T14:00:20;8.57;;;3.53;;
53875;SDS011;39789;53.216;5.624;2024-01-30T14:02:48;4.45;;;2.80;;
53875;SDS011;39789;53.216;5.624;2024-01-30T14:05:13;6.15;;;2.63;;
53875;SDS011;39789;53.216;5.624;2024-01-30T14:07:40;8.27;;;3.53;;
53875;SDS011;39789;53.216;5.624;2024-01-30T14:10:08;5.30;;;2.50;;
53875;SDS011;39789;53.216;5.624;2024-01-30T14:12:36;7.10;;;2.95;;
53875;SDS011;39789;53.216;5.624;2024-01-30T14:15:02;7.38;;;2.80;;
53875;SDS011;39789;53.216;5.624;2024-01-30T14:17:27;7.32;;;3.28;;
53875;SDS011;39789;53.216;5.624;2024-01-30T14:19:53;4.57;;;2.75;;
53875;SDS011;39789;53.216;5.624;2024-01-30T14:22:19;5.93;;;2.90;;
53875;SDS011;39789;53.216;5.624;2024-01-30T14:24:44;8.95;;;3.60;;
53875;SDS011;39789;53.216;5.624;2024-01-30T14:27:10;7.22;;;3.40;;
53875;SDS011;39789;53.216;5.624;2024-01-30T14:29:36;7.43;;;3.60;;